Latest Weather Observations for Witchcliffe

IDW60801

Issued at 6:03 pm WST Tuesday 6 December 2016 (issued every 30 minutes, with the page automatically refreshed every 10 minutes)

About weather observations | Map of weather stations | Latest weather observations for WA | Other Formats
Station Details ID: 009746 Name: WITCHCLIFFE Lat: -34.03 Lon: 115.10 Height: 80.0 m
Data from the previous 72 hours. | See also: Recent months at Witchcliffe
Date/Time
WST
Temp
°C
App
Temp
°C
Dew
Point
°C
Rel
Hum
%
Delta-T
°C
Wind Press
QNH
hPa
Press
MSL
hPa
Rain since
9am
mm
Dir  Spd
km/h
Gust
km/h
Spd
kts
Gust
kts
06/06:00pm 18.0 16.4 12.9 72 2.9 WSW 13 24 7 13 1014.3 1014.1 0.0
06/05:30pm 17.9 15.2 12.8 72 2.9 W 19 28 10 15 1014.1 1013.9 0.0
06/05:00pm 18.3 16.6 12.3 68 3.3 W 13 22 7 12 1014.1 1013.9 0.0
06/04:30pm 19.6 16.6 11.9 61 4.3 W 19 26 10 14 1014.1 1013.9 0.0
06/04:00pm 19.3 16.8 12.3 64 3.9 W 17 28 9 15 1014.3 1014.1 0.0
06/03:30pm 19.7 16.9 11.5 59 4.5 W 17 28 9 15 1014.4 1014.2 0.0
06/03:00pm 20.1 17.1 11.8 59 4.6 WSW 19 28 10 15 1014.7 1014.5 0.0
06/02:30pm 20.1 17.4 11.8 59 4.6 W 17 28 9 15 1015.1 1014.9 0.0
06/02:00pm 19.3 16.3 12.1 63 4.0 W 19 28 10 15 1015.4 1015.2 0.0
06/01:30pm 20.5 17.5 10.6 53 5.4 W 17 28 9 15 1015.7 1015.5 0.0
06/01:00pm 21.0 17.7 10.8 52 5.6 WNW 19 28 10 15 1016.0 1015.8 0.0
06/12:30pm 20.5 16.9 9.7 50 5.8 W 19 30 10 16 1016.2 1016.0 0.0
06/12:00pm 21.2 18.4 11.2 53 5.5 WSW 17 28 9 15 1016.5 1016.3 0.0
06/11:30am 19.2 15.8 10.5 57 4.7 WSW 19 26 10 14 1016.8 1016.6 0.0
06/11:00am 20.3 17.6 10.4 53 5.4 W 15 28 8 15 1017.0 1016.8 0.0
06/10:30am 19.3 16.1 9.8 54 5.1 W 17 24 9 13 1017.3 1017.1 0.0
06/10:00am 20.5 17.6 9.7 50 5.8 W 15 22 8 12 1017.5 1017.3 0.0
06/09:30am 19.0 15.8 8.4 50 5.5 W 15 26 8 14 1017.6 1017.4 0.0
06/09:00am 20.1 17.6 9.7 51 5.6 WNW 13 24 7 13 1017.5 1017.3 0.0
06/08:30am 17.7 14.5 8.6 55 4.7 WNW 15 24 8 13 1017.8 1017.6 0.0
06/08:00am 17.4 15.2 9.3 59 4.2 WSW 11 19 6 10 1017.5 1017.3 0.0
06/07:30am 16.6 15.0 11.7 73 2.7 W 11 20 6 11 1017.4 1017.2 0.0
06/07:00am 14.4 15.7 14.2 99 0.1 CALM 0 0 0 0 1017.3 1017.1 0.0
06/06:30am 11.8 12.3 11.6 99 0.1 CALM 0 0 0 0 1017.3 1017.1 0.0
06/06:00am 9.6 9.5 9.5 99 0.0 CALM 0 0 0 0 1017.2 1017.0 0.0
06/05:30am 7.7 7.1 7.6 99 0.0 CALM 0 0 0 0 1017.2 1017.0 0.0
06/05:00am 7.6 7.0 7.5 99 0.0 CALM 0 0 0 0 1017.0 1016.8 0.0
06/04:30am 7.5 6.9 7.4 99 0.0 CALM 0 0 0 0 1016.7 1016.5 0.0
06/04:00am 8.1 7.6 8.0 99 0.0 CALM 0 0 0 0 1016.5 1016.3 0.0
06/03:30am 9.1 8.9 9.0 99 0.0 CALM 0 0 0 0 1016.3 1016.1 0.0
06/03:00am 9.2 9.0 9.1 99 0.0 CALM 0 0 0 0 1016.6 1016.4 0.0
06/02:30am 8.9 8.6 8.8 99 0.0 CALM 0 0 0 0 1016.7 1016.5 0.0
06/02:00am 9.4 9.3 9.3 99 0.0 CALM 0 0 0 0 1016.6 1016.4 0.0
06/01:30am 9.3 9.0 8.8 97 0.2 CALM 0 0 0 0 1016.8 1016.6 0.0
06/01:00am 10.1 10.0 9.6 97 0.3 CALM 0 0 0 0 1016.9 1016.7 0.0
06/12:30am 10.7 10.7 9.9 95 0.4 CALM 0 0 0 0 1017.0 1016.8 0.0
06/12:00am 11.1 11.2 10.2 94 0.5 CALM 0 0 0 0 1017.4 1017.2 0.0
 
Date/Time
WST
Temp
°C
App
Temp
°C
Dew
Point
°C
Rel
Hum
%
Delta-T
°C
Wind Press
QNH
hPa
Press
MSL
hPa
Rain since
9am
mm
Dir  Spd
km/h
Gust
km/h
Spd
kts
Gust
kts
05/11:30pm 11.8 12.0 10.7 93 0.6 CALM 0 0 0 0 1017.3 1017.1 0.0
05/11:00pm 12.4 12.8 11.1 92 0.7 CALM 0 6 0 3 1017.5 1017.3 0.0
05/10:30pm 12.9 13.3 11.3 90 0.8 CALM 0 0 0 0 1017.5 1017.3 0.0
05/10:00pm 13.5 13.9 11.4 87 1.1 CALM 0 0 0 0 1017.5 1017.3 0.0
05/09:30pm 13.8 14.2 11.3 85 1.3 CALM 0 0 0 0 1017.6 1017.4 0.0
05/09:00pm 14.6 15.0 11.4 81 1.7 CALM 0 0 0 0 1017.3 1017.1 0.0
05/08:30pm 15.4 14.8 11.8 79 2.0 S 6 9 3 5 1017.3 1017.1 0.0
05/08:00pm 15.9 14.7 11.7 76 2.3 SSW 9 15 5 8 1017.2 1017.0 0.0
05/07:30pm 16.2 14.2 11.6 74 2.5 SSW 13 20 7 11 1017.1 1016.9 0.0
05/07:00pm 16.9 15.2 11.2 69 3.1 SSW 11 19 6 10 1016.7 1016.5 0.0
05/06:30pm 17.1 15.2 10.5 65 3.5 SSW 11 15 6 8 1016.4 1016.2 0.0
05/06:00pm 17.5 15.2 10.4 63 3.8 SSW 13 19 7 10 1016.1 1015.9 0.0
05/05:30pm 18.2 15.7 11.0 63 3.9 SW 15 24 8 13 1015.9 1015.7 0.0
05/05:00pm 17.8 14.8 10.7 63 3.8 SW 17 24 9 13 1015.6 1015.4 0.0
05/04:30pm 18.5 15.3 9.8 57 4.6 SW 17 26 9 14 1015.6 1015.4 0.0
05/04:00pm 18.8 15.3 10.1 57 4.7 SSW 19 28 10 15 1015.5 1015.3 0.0
05/03:30pm 19.5 16.5 11.8 61 4.3 W 19 28 10 15 1015.6 1015.4 0.0
05/03:00pm 18.6 15.7 10.9 61 4.2 WSW 17 26 9 14 1015.6 1015.4 0.0
05/02:30pm 18.9 15.1 11.0 60 4.3 WSW 22 30 12 16 1015.6 1015.4 0.0
05/02:00pm 19.6 16.4 11.4 59 4.5 WSW 19 30 10 16 1015.3 1015.1 0.0
05/01:30pm 21.1 17.1 8.4 44 6.7 W 19 32 10 17 1015.2 1015.0 0.0
05/01:00pm 20.9 16.7 7.5 42 6.9 WSW 19 30 10 16 1015.0 1014.8 0.0
05/12:30pm 20.9 17.1 8.9 46 6.4 W 19 32 10 17 1015.2 1015.0 0.0
05/12:00pm 20.8 17.6 8.4 45 6.5 W 15 32 8 17 1015.3 1015.1 0.0
05/11:30am 20.3 16.6 10.1 52 5.5 WSW 20 28 11 15 1015.5 1015.3 0.0
05/11:00am 18.8 15.1 9.6 55 4.9 W 19 28 10 15 1015.4 1015.2 0.0
05/10:30am 18.5 15.2 9.6 56 4.7 WSW 17 26 9 14 1015.6 1015.4 0.0
05/10:00am 18.4 15.8 9.2 55 4.8 W 13 24 7 13 1015.7 1015.5 0.0
05/09:30am 17.9 16.2 10.0 60 4.2 NW 9 15 5 8 1015.7 1015.5 0.0
05/09:00am 17.6 15.6 10.0 61 4.0 NNW 11 17 6 9 1015.9 1015.7 0.0
05/08:30am 16.3 13.7 9.3 63 3.6 N 13 17 7 9 1016.0 1015.8 0.0
05/08:00am 15.2 12.2 9.1 67 3.1 N 15 17 8 9 1016.1 1015.9 0.0
05/07:30am 14.1 11.8 9.1 72 2.6 N 11 15 6 8 1016.1 1015.9 0.0
05/07:00am 13.4 11.2 9.5 77 2.0 N 11 13 6 7 1015.9 1015.7 0.0
05/06:30am 12.4 10.8 10.1 86 1.2 N 9 13 5 7 1015.9 1015.7 0.0
05/06:00am 11.4 10.3 10.8 96 0.3 NNW 7 9 4 5 1015.7 1015.5 0.0
05/05:30am 10.0 8.8 9.5 97 0.3 NNW 6 7 3 4 1015.5 1015.3 0.0
05/05:00am 9.7 8.2 9.1 96 0.3 N 7 9 4 5 1015.3 1015.1 0.0
05/04:30am 9.9 8.4 9.3 96 0.3 N 7 9 4 5 1015.3 1015.1 0.0
05/04:00am 9.7 8.4 9.2 97 0.2 N 6 7 3 4 1015.2 1015.0 0.0
05/03:30am 9.5 9.3 9.2 98 0.1 CALM 0 0 0 0 1015.0 1014.8 0.0
05/03:00am 8.7 7.2 8.3 97 0.2 NNW 6 7 3 4 1014.8 1014.6 0.0
05/02:30am 8.4 6.5 7.6 95 0.4 N 7 9 4 5 1014.7 1014.5 0.0
05/02:00am 8.2 7.6 7.3 94 0.4 CALM 0 0 0 0 1014.8 1014.6 0.0
05/01:30am 8.5 7.9 7.4 93 0.5 CALM 0 0 0 0 1015.0 1014.8 0.0
05/01:00am 8.7 8.1 7.5 92 0.6 CALM 0 0 0 0 1015.0 1014.8 0.0
05/12:30am 8.4 7.7 7.0 91 0.7 CALM 0 0 0 0 1014.9 1014.7 0.0
05/12:00am 8.7 8.1 7.2 90 0.7 CALM 0 0 0 0 1014.8 1014.6 0.0
 
Date/Time
WST
Temp
°C
App
Temp
°C
Dew
Point
°C
Rel
Hum
%
Delta-T
°C
Wind Press
QNH
hPa
Press
MSL
hPa
Rain since
9am
mm
Dir  Spd
km/h
Gust
km/h
Spd
kts
Gust
kts
04/11:30pm 8.8 8.1 6.9 88 0.9 CALM 0 0 0 0 1015.3 1015.1 0.0
04/11:00pm 9.4 8.8 7.3 87 1.0 CALM 0 0 0 0 1015.4 1015.2 0.0
04/10:30pm 10.1 9.6 7.7 85 1.2 CALM 0 0 0 0 1015.5 1015.3 0.0
04/10:00pm 10.0 9.4 7.3 83 1.3 CALM 0 2 0 1 1015.7 1015.5 0.0
04/09:30pm 9.9 9.2 6.8 81 1.5 CALM 0 0 0 0 1015.8 1015.6 0.0
04/09:00pm 10.4 9.2 6.5 77 1.8 SSW 2 6 1 3 1015.9 1015.7 0.0
04/08:30pm 10.8 9.5 6.2 73 2.2 SSW 2 7 1 4 1015.7 1015.5 0.0
04/08:00pm 12.1 10.1 6.4 68 2.7 SSW 6 7 3 4 1015.6 1015.4 0.0
04/07:30pm 13.7 11.7 6.3 61 3.6 SW 6 9 3 5 1015.6 1015.4 0.0
04/07:00pm 15.1 12.1 6.1 55 4.3 SSW 11 15 6 8 1015.5 1015.3 0.0
04/06:30pm 16.4 13.0 6.0 50 5.1 SSW 13 19 7 10 1015.3 1015.1 0.0
04/06:00pm 17.1 13.2 5.4 46 5.6 SW 15 24 8 13 1015.0 1014.8 0.0
04/05:30pm 17.4 13.3 6.0 47 5.6 SSW 17 26 9 14 1014.8 1014.6 0.0
04/05:00pm 18.4 13.9 5.9 44 6.2 SW 19 28 10 15 1014.7 1014.5 0.0
04/04:30pm 18.8 14.7 6.3 44 6.2 SW 17 26 9 14 1014.7 1014.5 0.0
04/04:00pm 18.3 13.8 7.1 48 5.6 SW 20 32 11 17 1014.7 1014.5 0.0
04/03:30pm 19.1 14.7 7.2 46 6.0 SW 20 30 11 16 1014.7 1014.5 0.0
04/03:00pm 17.9 13.0 7.0 49 5.5 SW 22 35 12 19 1014.8 1014.6 0.0
04/02:30pm 19.3 14.8 7.1 45 6.2 SSW 20 32 11 17 1014.8 1014.6 0.0
04/02:00pm 19.6 15.7 7.0 44 6.4 SSW 17 30 9 16 1014.8 1014.6 0.0
04/01:30pm 19.5 15.1 7.3 45 6.2 SW 20 35 11 19 1014.9 1014.7 0.0
04/01:00pm 18.9 14.5 6.7 45 6.1 SW 19 26 10 14 1015.0 1014.8 0.0
04/12:30pm 18.8 15.1 7.9 49 5.6 SSW 17 24 9 13 1015.3 1015.1 0.0
04/12:00pm 18.6 14.7 7.1 47 5.8 SSW 17 26 9 14 1015.4 1015.2 0.0
04/11:30am 18.6 14.6 6.8 46 5.9 SW 17 28 9 15 1015.6 1015.4 0.0
04/11:00am 20.4 17.1 8.1 45 6.4 S 15 26 8 14 1015.6 1015.4 0.0
04/10:30am 18.2 14.8 5.8 44 6.1 SSW 13 26 7 14 1015.8 1015.6 0.0
04/10:00am 18.1 14.3 5.7 44 6.1 SSW 15 26 8 14 1015.7 1015.5 0.0
04/09:30am 17.1 13.4 6.3 49 5.3 S 15 24 8 13 1015.6 1015.4 0.0
04/09:00am 16.9 12.5 6.4 50 5.2 SSW 19 30 10 16 1015.5 1015.3 4.0
04/08:30am 16.9 13.0 7.0 52 4.9 S 17 26 9 14 1015.5 1015.3 4.0
04/08:00am 16.6 12.5 6.4 51 5.0 S 17 22 9 12 1015.3 1015.1 4.0
04/07:30am 16.5 12.4 4.5 45 5.7 SSW 15 22 8 12 1014.9 1014.7 4.0
04/07:00am 16.0 13.5 6.4 53 4.7 S 9 13 5 7 1014.6 1014.4 4.0
04/06:30am 14.9 12.3 6.0 55 4.3 SSW 9 13 5 7 1014.2 1014.0 4.0
04/06:00am 14.0 11.6 6.8 62 3.5 SSW 9 13 5 7 1014.0 1013.8 4.0
04/05:30am 12.7 12.3 8.4 75 2.1 CALM 0 0 0 0 1013.8 1013.6 4.0
04/05:00am 12.2 11.6 7.5 73 2.3 CALM 0 0 0 0 1013.5 1013.3 4.0
04/04:30am 12.4 11.2 6.5 67 2.8 SSW 2 6 1 3 1013.2 1013.0 4.0
04/04:00am 13.1 10.9 5.5 60 3.6 SSW 6 7 3 4 1012.9 1012.7 4.0
04/03:30am 13.3 10.1 5.0 57 3.9 SSW 11 19 6 10 1012.9 1012.7 4.0
04/03:00am 12.8 10.9 7.7 71 2.5 SSW 7 11 4 6 1012.6 1012.4 4.0
04/02:30am 11.6 10.5 6.9 73 2.2 SW 2 6 1 3 1012.3 1012.1 4.0
04/02:00am 11.8 9.7 5.7 66 2.9 SW 6 7 3 4 1012.3 1012.1 4.0
04/01:30am 11.8 8.7 5.7 66 2.8 SSW 11 15 6 8 1012.2 1012.0 4.0
04/01:00am 11.5 9.4 5.8 68 2.7 SSW 6 11 3 6 1012.3 1012.1 4.0
04/12:30am 12.6 10.7 6.9 68 2.7 SSW 6 11 3 6 1012.2 1012.0 4.0
04/12:00am 13.7 11.7 7.2 65 3.2 SSW 7 11 4 6 1012.2 1012.0 4.0
 
Date/Time
WST
Temp
°C
App
Temp
°C
Dew
Point
°C
Rel
Hum
%
Delta-T
°C
Wind Press
QNH
hPa
Press
MSL
hPa
Rain since
9am
mm
Dir  Spd
km/h
Gust
km/h
Spd
kts
Gust
kts
03/11:30pm 13.7 11.5 6.3 61 3.6 SSW 7 11 4 6 1012.2 1012.0 4.0
03/11:00pm 14.0 10.7 6.4 60 3.7 SSW 13 22 7 12 1012.1 1011.9 4.0
03/10:30pm 14.5 11.5 7.5 63 3.5 SSW 13 20 7 11 1012.0 1011.8 4.0
03/10:00pm 14.4 11.1 7.9 65 3.2 SSW 15 22 8 12 1011.8 1011.6 4.0
03/09:30pm 15.0 12.2 8.7 66 3.2 SSW 13 24 7 13 1011.6 1011.4 4.0
03/09:00pm 14.9 11.7 8.4 65 3.3 SSW 15 26 8 14 1011.1 1010.9 4.0
03/08:30pm 15.2 12.5 9.1 67 3.1 SW 13 26 7 14 1010.8 1010.6 4.0
03/08:00pm 15.5 13.2 10.3 71 2.7 SSW 13 20 7 11 1010.6 1010.4 4.0
03/07:30pm 15.7 13.1 10.7 72 2.7 SSW 15 22 8 12 1010.4 1010.2 4.0
03/07:00pm 16.4 13.1 11.6 73 2.6 SSW 20 32 11 17 1010.0 1009.8 4.0
03/06:30pm 17.0 14.7 11.7 71 2.9 SSW 15 24 8 13 1009.6 1009.4 4.0

Other Formats:

Comma delimited format used in spreadsheet applications
http://www.bom.gov.au/fwo/IDW60801/IDW60801.95641.axf

JavaScript Object Notation format (JSON) in row-major order
http://www.bom.gov.au/fwo/IDW60801/IDW60801.95641.json